San Ysidro, California
Current Conditions -  °F | °C
As of 4:53 AM on Friday 31 Oct 2014 (Local Time) from KSDM Reporting Station
Overcast Overcast  
Wind Chill: 67°   Ceiling: 2800
Heat Index: 67°   Visibility: 10mi
Dew Point: 56°   Wind: 0mph
Humidity: 68%   Direction: NA
Pressure: 29.95"   Gusts: NA
Location:  32.55°N, 117.04°W
Report Text: KSDM 311153Z AUTO 00000KT 10SM OVC028 19/13 A2995 RMK AO2 SLP137 T01940133 10194 20172 56006 TSNO $
Loading
Personal Weather Stations






























Interactive Weather Map
Tropical Storm Tracking
New forecast layout! Learn more

10-Day Weather Forecast

Advertisements
Track Severe Weather on mobile